Latest Coastal Weather Observations for Low Head

IDV60701

Issued at 11:02 pm EST Sunday 26 May 2024 (issued every 10 minutes, with the page automatically refreshed every 10 minutes)

About coastal observations | Map of coastal stations | Coastal observations for VIC | Marine services | Other Formats
Station Details ID: 091293 Name: LOW HEAD Lat: -41.05 Lon: 146.79 Height: 3.0 m
Data from the previous 72 hours. | See also: Recent months at Low Head
Date/Time
EST
Wind Sea
Height
m
Swell Vis
km
Cloud Weather Temp
°C
Press
MSL
hPa
Rain since
9am
mm
Dir  Spd
kts
Gust
kts
Height
m
Period
s
Dir
26/11:00pm SSE 7 8 - - - - - - - 11.0 1022.7 0.2
26/10:30pm S 10 15 - - - - - - - 11.9 1022.7 0.2
26/10:16pm SSW 9 19 - - - - - - - 11.9 1022.7 0.0
26/10:00pm ENE 6 7 - - - - - - - 12.2 1022.9 0.0
26/09:30pm E 4 8 - - - - - - - 11.8 1023.2 0.0
26/09:00pm ESE 6 8 - - - - - - - 11.3 1023.1 0.0
26/08:30pm ESE 6 7 - - - - - - - 11.1 1023.3 0.0
26/08:00pm E 8 9 - - - - - - - 11.0 1023.2 0.0
26/07:30pm E 7 8 - - - - - - - 11.3 1023.3 0.0
26/07:00pm E 6 7 - - - - - - - 11.7 1023.5 0.0
26/06:30pm NNE 5 7 - - - - - - - 13.0 1023.6 0.0
26/06:00pm NNW 5 7 - - - - - - - 13.5 1023.8 0.0
26/05:30pm N 5 6 - - - - - - - 13.2 1023.7 0.0
26/05:00pm N 4 6 - - - - - - - 13.4 1023.6 0.0
26/04:30pm NNW 4 6 - - - - - - - 13.4 1023.8 0.0
26/04:00pm NNW 3 4 - - - - - - - 14.3 1023.8 0.0
26/03:30pm NNW 4 5 - - - - - - - 14.6 1023.9 0.0
26/03:00pm N 5 6 - - - - - - - 14.6 1023.8 0.0
26/02:30pm N 4 5 - - - - - - - 13.9 1023.8 0.0
26/02:00pm NNE 4 6 - - - - - - - 14.5 1024.0 0.0
26/01:30pm S 6 7 - - - - - - - 13.2 1024.6 0.0
26/01:00pm SSE 10 11 - - - - - - - 12.4 1024.9 0.0
26/12:30pm SSE 10 12 - - - - - - - 11.9 1025.3 0.0
26/12:00pm SSE 11 14 - - - - - - - 11.2 1025.7 0.0
26/11:30am SSE 13 15 - - - - - - - 10.3 1026.3 0.0
26/11:00am SSE 13 15 - - - - - - - 9.7 1026.8 0.0
26/10:30am SSE 15 17 - - - - - - - 8.6 1027.0 0.0
26/10:00am SSE 14 16 - - - - - - - 7.8 1027.0 0.0
26/09:30am SSE 15 18 - - - - - - - 6.9 1027.1 0.0
26/09:00am SSE 17 19 - - - - - - - 6.4 1026.9 0.0
26/08:30am SSE 15 19 - - - - - - - 6.0 1027.1 0.0
26/08:00am SSE 15 19 - - - - - - - 5.9 1027.0 0.0
26/07:30am SSE 15 18 - - - - - - - 5.8 1026.8 0.0
26/07:00am SSE 14 18 - - - - - - - 6.0 1026.8 0.0
26/06:30am SSE 15 19 - - - - - - - 6.2 1026.7 0.0
26/06:00am SSE 15 19 - - - - - - - 6.5 1026.6 0.0
26/05:30am SSE 14 17 - - - - - - - 6.8 1026.7 0.0
26/05:00am SSE 12 16 - - - - - - - 7.0 1026.7 0.0
26/04:30am SSE 13 16 - - - - - - - 6.8 1026.6 0.0
26/04:00am SSE 14 16 - - - - - - - 6.9 1026.8 0.0
26/03:30am SSE 13 15 - - - - - - - 6.8 1026.9 0.0
26/03:00am SSE 12 14 - - - - - - - 7.0 1027.2 0.0
26/02:30am SSE 12 15 - - - - - - - 7.3 1027.5 0.0
26/02:00am SSE 11 13 - - - - - - - 6.6 1027.5 0.0
26/01:30am SSE 12 14 - - - - - - - 7.0 1027.6 0.0
26/01:00am SSE 11 14 - - - - - - - 7.4 1027.7 0.0
26/12:30am SSE 11 13 - - - - - - - 7.8 1027.9 0.0
26/12:00am SSE 9 11 - - - - - - - 7.5 1028.1 0.0
 
Date/Time
EST
Wind Sea
Height
m
Swell Vis
km
Cloud Weather Temp
°C
Press
MSL
hPa
Rain since
9am
mm
Dir  Spd
kts
Gust
kts
Height
m
Period
s
Dir
25/11:30pm SSE 11 13 - - - - - - - 7.8 1028.2 0.0
25/11:00pm SSE 12 14 - - - - - - - 7.9 1028.4 0.0
25/10:30pm SSE 11 13 - - - - - - - 8.2 1028.5 0.0
25/10:00pm S 12 13 - - - - - - - 8.8 1028.9 0.0
25/09:30pm SSE 9 10 - - - - - - - 8.4 1028.8 0.0
25/09:00pm SSE 9 10 - - - - - - - 7.9 1028.8 0.0
25/08:30pm SSE 9 10 - - - - - - - 7.8 1028.7 0.0
25/08:00pm SSE 9 10 - - - - - - - 8.3 1028.6 0.0
25/07:30pm SSE 9 9 - - - - - - - 8.2 1028.6 0.0
25/07:00pm SSE 7 8 - - - - - - - 9.3 1028.5 0.0
25/06:30pm E 4 6 - - - - - - - 10.8 1028.5 0.0
25/06:00pm ESE 3 4 - - - - - - - 11.5 1028.2 0.0
25/05:30pm CALM 0 0 - - - - - - - 12.1 1028.2 0.0
25/05:00pm NE 3 4 - - - - - - - 12.3 1028.0 0.0
25/04:30pm N 1 4 - - - - - - - 13.6 1028.0 0.0
25/04:00pm N 5 7 - - - - - - - 13.9 1028.0 0.0
25/03:30pm N 5 6 - - - - - - - 14.3 1028.0 0.0
25/03:00pm N 7 9 - - - - - - - 14.0 1028.0 0.0
25/02:30pm S 10 12 - - - - - - - 14.0 1028.0 0.0
25/02:00pm S 8 10 - - - - - - - 13.9 1028.3 0.0
25/01:30pm S 8 9 - - - - - - - 13.5 1028.4 0.0
25/01:00pm S 8 9 - - - - - - - 13.0 1028.9 0.0
25/12:30pm S 8 10 - - - - - - - 12.4 1029.3 0.0
25/12:00pm S 10 11 - - - - - - - 12.0 1029.8 0.0
25/11:30am SSE 9 11 - - - - - - - 11.7 1030.4 0.0
25/11:00am SSE 10 11 - - - - - - - 11.2 1030.8 0.0
25/10:30am SSE 11 13 - - - - - - - 10.4 1030.9 0.0
25/10:00am SSE 12 14 - - - - - - - 9.6 1031.1 0.0
25/09:30am SSE 11 13 - - - - - - - 8.7 1031.1 0.0
25/09:00am SSE 10 12 - - - - - - - 8.8 1031.0 0.0
25/08:30am SSE 11 13 - - - - - - - 8.5 1030.9 0.0
25/08:00am SSE 9 11 - - - - - - - 8.1 1030.6 0.0
25/07:30am SSE 9 11 - - - - - - - 8.0 1030.4 0.0
25/07:00am SSE 9 11 - - - - - - - 8.1 1030.2 0.0
25/06:30am SSE 10 11 - - - - - - - 8.4 1030.0 0.0
25/06:00am SSE 10 12 - - - - - - - 8.3 1029.9 0.0
25/05:30am SSE 9 11 - - - - - - - 8.5 1029.8 0.0
25/05:00am SSE 7 8 - - - - - - - 7.9 1029.6 0.0
25/04:30am SSE 8 9 - - - - - - - 8.3 1029.7 0.0
25/04:00am SSE 8 11 - - - - - - - 8.6 1029.9 0.0
25/03:30am SSE 8 9 - - - - - - - 8.9 1030.1 0.0
25/03:00am SSE 9 10 - - - - - - - 9.2 1030.3 0.0
25/02:30am SSE 8 10 - - - - - - - 9.4 1030.4 0.0
25/02:00am SE 6 8 - - - - - - - 9.5 1030.5 0.0
25/01:30am SSE 8 9 - - - - - - - 9.8 1030.6 0.0
25/01:00am SSE 7 8 - - - - - - - 9.7 1030.6 0.0
25/12:30am SSE 6 7 - - - - - - - 9.9 1030.8 0.0
25/12:00am SSE 6 7 - - - - - - - 9.9 1030.8 0.0
 
Date/Time
EST
Wind Sea
Height
m
Swell Vis
km
Cloud Weather Temp
°C
Press
MSL
hPa
Rain since
9am
mm
Dir  Spd
kts
Gust
kts
Height
m
Period
s
Dir
24/11:30pm SE 5 7 - - - - - - - 10.1 1030.7 0.0
24/11:00pm ESE 4 7 - - - - - - - 10.0 1030.7 0.0
24/10:30pm ESE 5 6 - - - - - - - 10.2 1030.9 0.0
24/10:00pm SE 5 7 - - - - - - - 10.2 1030.8 0.0
24/09:30pm ESE 5 7 - - - - - - - 10.6 1030.6 0.0
24/09:00pm ESE 6 6 - - - - - - - 11.0 1030.7 0.0
24/08:30pm ESE 5 7 - - - - - - - 10.8 1030.7 0.0
24/08:00pm ESE 6 7 - - - - - - - 10.7 1030.5 0.0
24/07:30pm E 5 7 - - - - - - - 10.6 1030.3 0.0
24/07:00pm SE 4 5 - - - - - - - 10.8 1030.0 0.0
24/06:30pm SE 4 5 - - - - - - - 10.9 1029.7 0.0
24/06:00pm SE 5 6 - - - - - - - 11.1 1029.3 0.0
24/05:30pm ESE 5 7 - - - - - - - 11.9 1029.1 0.0
24/05:00pm ESE 5 7 - - - - - - - 12.1 1029.0 0.0
24/04:30pm ESE 5 6 - - - - - - - 12.8 1029.0 0.0
24/04:00pm SE 7 9 - - - - - - - 13.4 1029.0 0.0
24/03:30pm SSE 9 11 - - - - - - - 13.8 1028.8 0.0
24/03:00pm SSE 10 12 - - - - - - - 13.8 1028.7 0.0
24/02:30pm SSE 9 11 - - - - - - - 13.7 1028.8 0.0
24/02:00pm SSE 8 11 - - - - - - - 13.5 1028.9 0.0
24/01:30pm SSE 10 12 - - - - - - - 13.7 1028.9 0.0
24/01:00pm SSE 10 13 - - - - - - - 13.3 1029.1 0.0
24/12:30pm SSE 9 12 - - - - - - - 12.7 1029.3 0.0
24/12:00pm S 12 15 - - - - - - - 12.1 1029.5 0.0
24/11:30am SSE 12 15 - - - - - - - 12.3 1029.8 0.0
24/11:00am SSE 12 18 - - - - - - - 11.3 1029.9 0.0
24/10:30am SSE 14 17 - - - - - - - 10.7 1029.9 0.0
24/10:00am SSE 15 21 - - - - - - - 10.0 1029.7 0.0
24/09:30am SSE 17 25 - - - - - - - 9.4 1029.4 0.0
24/09:08am SSE 15 26 - - - - - - - 9.1 1029.3 0.0
24/09:00am SSE 15 20 - - - - - - - 9.0 1029.4 13.6
24/08:30am SSE 17 22 - - - - - - - 8.8 1029.3 13.6
24/08:00am SSE 17 21 - - - - - - - 8.7 1029.0 13.6
24/07:30am SSE 15 21 - - - - - - - 8.2 1028.6 13.6
24/07:00am SSE 16 20 - - - - - - - 8.1 1028.2 13.6
24/06:30am SSE 14 19 - - - - - - - 8.2 1028.0 13.6
24/06:00am SSE 18 23 - - - - - - - 8.6 1027.9 13.6
24/05:30am SSE 18 23 - - - - - - - 8.9 1027.5 13.6
24/05:00am SSE 16 19 - - - - - - - 9.0 1027.2 13.6
24/04:30am SSE 16 21 - - - - - - - 9.3 1027.2 13.6
24/04:00am SSE 15 19 - - - - - - - 9.2 1027.2 13.6
24/03:30am SSE 14 17 - - - - - - - 9.3 1027.3 13.6
24/03:00am SSE 14 18 - - - - - - - 9.3 1027.1 13.6
24/02:30am SSE 12 17 - - - - - - - 9.3 1027.0 13.6
24/02:00am SE 13 17 - - - - - - - 9.4 1026.7 13.6
24/01:30am SSE 14 19 - - - - - - - 9.6 1026.8 13.6
24/01:00am SSE 16 22 - - - - - - - 9.7 1026.6 13.6
24/12:30am SSE 12 18 - - - - - - - 10.0 1026.8 13.6
24/12:00am SE 15 21 - - - - - - Rain 9.8 1025.5 13.6
 
Date/Time
EST
Wind Sea
Height
m
Swell Vis
km
Cloud Weather Temp
°C
Press
MSL
hPa
Rain since
9am
mm
Dir  Spd
kts
Gust
kts
Height
m
Period
s
Dir
23/11:30pm SSE 13 21 - - - - - - - 10.4 1026.1 12.6

Other formats

Comma delimited format used in spreadsheet applications
http://www.bom.gov.au/fwo/IDV60701/IDV60701.95964.axf

JavaScript Object Notation format (JSON) in row-major order
http://www.bom.gov.au/fwo/IDV60701/IDV60701.95964.json

Data quality

Most of these data are generated automatically and are frequently updated. Quality checks on data are not normally performed. It is possible for incorrect values to appear. Refer to information at About Latest Weather Observations and please check the disclaimer before using these data.